sensor_id;sensor_type;location;lat;lon;timestamp;P1;durP1;ratioP1;P2;durP2;ratioP2
12912;SDS011;6524;51.368;11.984;2022-10-16T04:02:41;6.20;;;5.63;;
12912;SDS011;6524;51.368;11.984;2022-10-16T04:07:41;3.67;;;2.90;;
12912;SDS011;6524;51.368;11.984;2022-10-16T04:12:41;2.40;;;1.98;;
12912;SDS011;6524;51.368;11.984;2022-10-16T04:17:42;2.00;;;1.80;;
12912;SDS011;6524;51.368;11.984;2022-10-16T04:22:42;7.68;;;5.95;;
12912;SDS011;6524;51.368;11.984;2022-10-16T04:27:43;2.30;;;1.70;;
12912;SDS011;6524;51.368;11.984;2022-10-16T04:32:43;2.00;;;1.80;;
12912;SDS011;6524;51.368;11.984;2022-10-16T04:37:48;1.85;;;1.70;;
12912;SDS011;6524;51.368;11.984;2022-10-16T04:42:49;2.67;;;2.47;;
12912;SDS011;6524;51.368;11.984;2022-10-16T04:47:49;11.48;;;10.18;;
12912;SDS011;6524;51.368;11.984;2022-10-16T04:52:49;8.48;;;7.63;;
12912;SDS011;6524;51.368;11.984;2022-10-16T04:57:50;6.68;;;6.00;;
12912;SDS011;6524;51.368;11.984;2022-10-16T05:02:50;4.88;;;4.47;;
12912;SDS011;6524;51.368;11.984;2022-10-16T05:07:51;3.20;;;2.90;;
12912;SDS011;6524;51.368;11.984;2022-10-16T05:12:51;3.70;;;3.20;;
12912;SDS011;6524;51.368;11.984;2022-10-16T05:17:53;3.83;;;2.80;;
12912;SDS011;6524;51.368;11.984;2022-10-16T05:22:53;3.00;;;2.70;;
12912;SDS011;6524;51.368;11.984;2022-10-16T05:27:54;2.45;;;2.20;;
12912;SDS011;6524;51.368;11.984;2022-10-16T05:32:54;3.28;;;2.92;;
12912;SDS011;6524;51.368;11.984;2022-10-16T05:37:55;5.50;;;5.00;;
12912;SDS011;6524;51.368;11.984;2022-10-16T05:42:55;4.28;;;3.88;;
12912;SDS011;6524;51.368;11.984;2022-10-16T05:47:55;5.82;;;4.95;;
12912;SDS011;6524;51.368;11.984;2022-10-16T05:52:56;3.72;;;3.13;;
12912;SDS011;6524;51.368;11.984;2022-10-16T05:57:56;3.22;;;2.50;;
12912;SDS011;6524;51.368;11.984;2022-10-16T06:02:57;2.95;;;2.75;;
12912;SDS011;6524;51.368;11.984;2022-10-16T06:07:57;2.80;;;2.60;;
12912;SDS011;6524;51.368;11.984;2022-10-16T06:12:57;3.65;;;2.92;;
12912;SDS011;6524;51.368;11.984;2022-10-16T06:17:58;4.53;;;4.13;;
12912;SDS011;6524;51.368;11.984;2022-10-16T06:22:58;8.20;;;7.40;;
12912;SDS011;6524;51.368;11.984;2022-10-16T06:27:58;7.90;;;7.20;;
12912;SDS011;6524;51.368;11.984;2022-10-16T06:32:59;5.47;;;4.93;;
12912;SDS011;6524;51.368;11.984;2022-10-16T06:38:01;4.38;;;3.97;;
12912;SDS011;6524;51.368;11.984;2022-10-16T06:43:02;3.58;;;3.28;;
12912;SDS011;6524;51.368;11.984;2022-10-16T06:48:02;5.03;;;4.60;;
12912;SDS011;6524;51.368;11.984;2022-10-16T06:53:03;13.75;;;12.43;;
12912;SDS011;6524;51.368;11.984;2022-10-16T06:58:03;4.70;;;3.80;;
12912;SDS011;6524;51.368;11.984;2022-10-16T07:03:03;2.88;;;2.40;;
12912;SDS011;6524;51.368;11.984;2022-10-16T07:08:04;3.45;;;2.60;;
12912;SDS011;6524;51.368;11.984;2022-10-16T07:13:05;4.03;;;2.10;;
12912;SDS011;6524;51.368;11.984;2022-10-16T07:18:07;2.47;;;1.90;;
12912;SDS011;6524;51.368;11.984;2022-10-16T07:23:07;2.13;;;1.90;;
12912;SDS011;6524;51.368;11.984;2022-10-16T07:28:08;1.95;;;1.85;;
12912;SDS011;6524;51.368;11.984;2022-10-16T07:33:09;3.78;;;2.40;;
12912;SDS011;6524;51.368;11.984;2022-10-16T07:38:09;1.90;;;1.80;;
12912;SDS011;6524;51.368;11.984;2022-10-16T07:43:09;1.90;;;1.80;;
12912;SDS011;6524;51.368;11.984;2022-10-16T07:48:09;3.47;;;1.70;;
12912;SDS011;6524;51.368;11.984;2022-10-16T07:53:10;3.65;;;2.42;;
12912;SDS011;6524;51.368;11.984;2022-10-16T07:58:11;7.78;;;7.07;;
12912;SDS011;6524;51.368;11.984;2022-10-16T08:03:11;5.57;;;4.50;;
12912;SDS011;6524;51.368;11.984;2022-10-16T08:08:15;2.22;;;1.92;;
12912;SDS011;6524;51.368;11.984;2022-10-16T08:13:17;1.70;;;1.60;;
12912;SDS011;6524;51.368;11.984;2022-10-16T08:18:17;1.50;;;1.40;;
12912;SDS011;6524;51.368;11.984;2022-10-16T08:23:17;1.67;;;1.42;;
12912;SDS011;6524;51.368;11.984;2022-10-16T08:28:18;1.80;;;1.70;;
12912;SDS011;6524;51.368;11.984;2022-10-16T08:33:19;1.67;;;1.58;;
12912;SDS011;6524;51.368;11.984;2022-10-16T08:38:20;1.40;;;1.30;;
12912;SDS011;6524;51.368;11.984;2022-10-16T08:48:33;1.85;;;1.75;;
12912;SDS011;6524;51.368;11.984;2022-10-16T08:53:38;1.42;;;1.23;;
12912;SDS011;6524;51.368;11.984;2022-10-16T08:58:45;1.17;;;1.08;;
12912;SDS011;6524;51.368;11.984;2022-10-16T09:20:44;1.10;;;0.95;;
12912;SDS011;6524;51.368;11.984;2022-10-16T09:25:24;1.10;;;1.00;;
12912;SDS011;6524;51.368;11.984;2022-10-16T09:30:26;1.20;;;1.10;;
12912;SDS011;6524;51.368;11.984;2022-10-16T09:35:35;1.17;;;1.17;;
12912;SDS011;6524;51.368;11.984;2022-10-16T09:40:38;0.70;;;0.70;;
12912;SDS011;6524;51.368;11.984;2022-10-16T09:45:42;1.20;;;1.10;;
12912;SDS011;6524;51.368;11.984;2022-10-16T09:50:43;1.98;;;1.02;;
12912;SDS011;6524;51.368;11.984;2022-10-16T09:55:52;1.50;;;1.40;;
12912;SDS011;6524;51.368;11.984;2022-10-16T10:00:53;2.65;;;1.17;;
12912;SDS011;6524;51.368;11.984;2022-10-16T10:05:54;0.90;;;0.90;;
12912;SDS011;6524;51.368;11.984;2022-10-16T10:10:55;0.90;;;0.90;;
12912;SDS011;6524;51.368;11.984;2022-10-16T10:15:55;0.93;;;0.90;;
12912;SDS011;6524;51.368;11.984;2022-10-16T10:20:59;1.13;;;1.02;;
12912;SDS011;6524;51.368;11.984;2022-10-16T10:26:03;1.33;;;1.23;;
12912;SDS011;6524;51.368;11.984;2022-10-16T10:31:17;1.35;;;1.20;;
12912;SDS011;6524;51.368;11.984;2022-10-16T10:36:30;1.00;;;1.00;;
12912;SDS011;6524;51.368;11.984;2022-10-16T10:46:56;1.23;;;1.20;;
12912;SDS011;6524;51.368;11.984;2022-10-16T10:57:29;1.05;;;1.05;;
12912;SDS011;6524;51.368;11.984;2022-10-16T11:18:36;1.23;;;1.15;;
12912;SDS011;6524;51.368;11.984;2022-10-16T11:23:57;1.30;;;1.20;;
12912;SDS011;6524;51.368;11.984;2022-10-16T11:29:02;2.17;;;1.50;;
12912;SDS011;6524;51.368;11.984;2022-10-16T11:34:28;1.27;;;1.17;;
12912;SDS011;6524;51.368;11.984;2022-10-16T11:39:31;1.35;;;1.25;;
12912;SDS011;6524;51.368;11.984;2022-10-16T11:49:59;1.40;;;1.30;;
12912;SDS011;6524;51.368;11.984;2022-10-16T11:55:16;1.92;;;1.10;;
12912;SDS011;6524;51.368;11.984;2022-10-16T12:05:36;1.67;;;1.20;;
12912;SDS011;6524;51.368;11.984;2022-10-16T12:10:51;0.90;;;0.90;;
12912;SDS011;6524;51.368;11.984;2022-10-16T12:15:52;1.30;;;1.20;;
12912;SDS011;6524;51.368;11.984;2022-10-16T12:21:04;1.67;;;1.30;;
12912;SDS011;6524;51.368;11.984;2022-10-16T12:26:06;1.40;;;1.30;;
12912;SDS011;6524;51.368;11.984;2022-10-16T12:31:07;1.40;;;1.30;;
12912;SDS011;6524;51.368;11.984;2022-10-16T12:36:26;1.30;;;1.20;;
12912;SDS011;6524;51.368;11.984;2022-10-16T12:41:30;1.65;;;1.40;;
12912;SDS011;6524;51.368;11.984;2022-10-16T12:51:36;1.40;;;1.20;;
12912;SDS011;6524;51.368;11.984;2022-10-16T13:01:56;1.38;;;1.30;;
12912;SDS011;6524;51.368;11.984;2022-10-16T13:07:23;1.35;;;1.25;;
12912;SDS011;6524;51.368;11.984;2022-10-16T13:18:14;1.25;;;1.20;;
12912;SDS011;6524;51.368;11.984;2022-10-16T13:23:22;1.45;;;1.20;;
12912;SDS011;6524;51.368;11.984;2022-10-16T13:28:30;1.33;;;1.10;;
12912;SDS011;6524;51.368;11.984;2022-10-16T13:33:34;1.35;;;1.27;;
12912;SDS011;6524;51.368;11.984;2022-10-16T13:38:40;1.33;;;1.20;;
12912;SDS011;6524;51.368;11.984;2022-10-16T13:54:02;1.13;;;1.13;;
12912;SDS011;6524;51.368;11.984;2022-10-16T13:59:04;1.83;;;1.20;;
12912;SDS011;6524;51.368;11.984;2022-10-16T14:04:22;1.70;;;1.60;;
12912;SDS011;6524;51.368;11.984;2022-10-16T14:09:24;1.20;;;1.20;;
12912;SDS011;6524;51.368;11.984;2022-10-16T14:14:41;2.05;;;1.30;;
12912;SDS011;6524;51.368;11.984;2022-10-16T14:19:47;1.55;;;1.45;;
12912;SDS011;6524;51.368;11.984;2022-10-16T14:24:49;1.30;;;1.20;;
12912;SDS011;6524;51.368;11.984;2022-10-16T14:29:50;1.33;;;1.23;;
12912;SDS011;6524;51.368;11.984;2022-10-16T14:34:54;1.50;;;1.40;;
12912;SDS011;6524;51.368;11.984;2022-10-16T14:39:55;1.40;;;1.30;;
12912;SDS011;6524;51.368;11.984;2022-10-16T14:44:56;1.48;;;1.38;;
12912;SDS011;6524;51.368;11.984;2022-10-16T14:49:58;2.40;;;1.73;;
12912;SDS011;6524;51.368;11.984;2022-10-16T14:55:02;1.10;;;1.10;;
12912;SDS011;6524;51.368;11.984;2022-10-16T15:00:04;1.20;;;1.10;;
12912;SDS011;6524;51.368;11.984;2022-10-16T15:05:17;1.45;;;1.35;;
12912;SDS011;6524;51.368;11.984;2022-10-16T15:10:26;1.20;;;1.10;;
12912;SDS011;6524;51.368;11.984;2022-10-16T15:15:34;1.27;;;1.20;;
12912;SDS011;6524;51.368;11.984;2022-10-16T15:20:37;1.60;;;1.50;;
12912;SDS011;6524;51.368;11.984;2022-10-16T15:25:41;1.30;;;1.20;;
12912;SDS011;6524;51.368;11.984;2022-10-16T15:30:50;1.65;;;1.55;;
12912;SDS011;6524;51.368;11.984;2022-10-16T15:35:52;1.77;;;1.50;;
12912;SDS011;6524;51.368;11.984;2022-10-16T15:40:54;3.33;;;2.40;;
12912;SDS011;6524;51.368;11.984;2022-10-16T15:51:03;1.45;;;1.30;;
12912;SDS011;6524;51.368;11.984;2022-10-16T15:56:06;1.92;;;1.65;;
12912;SDS011;6524;51.368;11.984;2022-10-16T16:01:08;2.63;;;1.90;;
12912;SDS011;6524;51.368;11.984;2022-10-16T16:06:11;2.45;;;1.50;;
12912;SDS011;6524;51.368;11.984;2022-10-16T16:11:14;1.90;;;1.70;;
12912;SDS011;6524;51.368;11.984;2022-10-16T16:16:16;1.92;;;1.80;;
12912;SDS011;6524;51.368;11.984;2022-10-16T16:21:17;2.08;;;1.60;;
12912;SDS011;6524;51.368;11.984;2022-10-16T16:26:25;1.83;;;1.70;;
12912;SDS011;6524;51.368;11.984;2022-10-16T16:31:33;2.20;;;2.00;;
12912;SDS011;6524;51.368;11.984;2022-10-16T16:36:35;2.80;;;2.00;;
12912;SDS011;6524;51.368;11.984;2022-10-16T16:41:35;2.70;;;2.10;;
12912;SDS011;6524;51.368;11.984;2022-10-16T16:46:39;2.63;;;1.90;;
12912;SDS011;6524;51.368;11.984;2022-10-16T16:51:40;3.30;;;3.00;;
12912;SDS011;6524;51.368;11.984;2022-10-16T16:56:40;3.50;;;2.72;;
12912;SDS011;6524;51.368;11.984;2022-10-16T17:01:43;3.97;;;3.58;;
12912;SDS011;6524;51.368;11.984;2022-10-16T17:06:44;6.65;;;4.88;;
12912;SDS011;6524;51.368;11.984;2022-10-16T17:11:44;9.35;;;4.88;;
12912;SDS011;6524;51.368;11.984;2022-10-16T17:16:45;4.18;;;3.75;;
12912;SDS011;6524;51.368;11.984;2022-10-16T17:21:48;4.70;;;4.30;;
12912;SDS011;6524;51.368;11.984;2022-10-16T17:26:49;9.27;;;6.13;;
12912;SDS011;6524;51.368;11.984;2022-10-16T17:31:50;3.58;;;3.33;;
12912;SDS011;6524;51.368;11.984;2022-10-16T17:36:50;3.60;;;3.30;;
12912;SDS011;6524;51.368;11.984;2022-10-16T17:41:50;3.60;;;3.30;;
12912;SDS011;6524;51.368;11.984;2022-10-16T17:46:51;4.30;;;3.90;;
12912;SDS011;6524;51.368;11.984;2022-10-16T17:51:52;4.43;;;4.03;;
12912;SDS011;6524;51.368;11.984;2022-10-16T17:56:53;5.70;;;5.10;;
12912;SDS011;6524;51.368;11.984;2022-10-16T18:01:53;5.00;;;4.50;;
12912;SDS011;6524;51.368;11.984;2022-10-16T18:06:54;5.80;;;5.20;;
12912;SDS011;6524;51.368;11.984;2022-10-16T18:11:59;5.25;;;4.75;;
12912;SDS011;6524;51.368;11.984;2022-10-16T18:16:59;5.10;;;4.60;;
12912;SDS011;6524;51.368;11.984;2022-10-16T18:22:00;6.25;;;5.68;;
12912;SDS011;6524;51.368;11.984;2022-10-16T18:27:01;5.45;;;4.95;;
12912;SDS011;6524;51.368;11.984;2022-10-16T18:32:01;4.43;;;4.03;;
12912;SDS011;6524;51.368;11.984;2022-10-16T18:37:01;4.72;;;4.32;;
12912;SDS011;6524;51.368;11.984;2022-10-16T18:42:02;5.65;;;4.55;;
12912;SDS011;6524;51.368;11.984;2022-10-16T18:47:02;6.78;;;6.15;;
12912;SDS011;6524;51.368;11.984;2022-10-16T18:52:03;6.25;;;5.65;;
12912;SDS011;6524;51.368;11.984;2022-10-16T18:57:04;6.13;;;5.53;;
12912;SDS011;6524;51.368;11.984;2022-10-16T19:02:04;6.45;;;5.85;;
12912;SDS011;6524;51.368;11.984;2022-10-16T19:07:04;6.68;;;5.93;;
12912;SDS011;6524;51.368;11.984;2022-10-16T19:12:06;6.05;;;5.20;;
12912;SDS011;6524;51.368;11.984;2022-10-16T19:17:07;6.15;;;5.55;;
12912;SDS011;6524;51.368;11.984;2022-10-16T19:22:07;6.97;;;6.25;;
12912;SDS011;6524;51.368;11.984;2022-10-16T19:27:13;6.50;;;5.85;;
12912;SDS011;6524;51.368;11.984;2022-10-16T19:32:13;6.05;;;5.45;;
12912;SDS011;6524;51.368;11.984;2022-10-16T19:37:14;5.75;;;5.25;;
12912;SDS011;6524;51.368;11.984;2022-10-16T19:42:14;6.03;;;5.45;;
12912;SDS011;6524;51.368;11.984;2022-10-16T19:47:15;5.97;;;5.22;;
12912;SDS011;6524;51.368;11.984;2022-10-16T19:52:15;6.07;;;5.45;;
12912;SDS011;6524;51.368;11.984;2022-10-16T19:57:16;5.43;;;4.75;;
12912;SDS011;6524;51.368;11.984;2022-10-16T20:02:16;5.00;;;4.53;;
12912;SDS011;6524;51.368;11.984;2022-10-16T20:07:17;4.78;;;4.35;;
12912;SDS011;6524;51.368;11.984;2022-10-16T20:12:17;4.67;;;4.27;;
12912;SDS011;6524;51.368;11.984;2022-10-16T20:17:18;6.75;;;6.15;;
12912;SDS011;6524;51.368;11.984;2022-10-16T20:22:18;5.18;;;4.68;;
12912;SDS011;6524;51.368;11.984;2022-10-16T20:27:19;5.05;;;4.60;;
12912;SDS011;6524;51.368;11.984;2022-10-16T20:32:19;5.03;;;4.53;;
12912;SDS011;6524;51.368;11.984;2022-10-16T20:37:20;5.13;;;4.63;;
12912;SDS011;6524;51.368;11.984;2022-10-16T20:42:20;5.22;;;4.78;;
12912;SDS011;6524;51.368;11.984;2022-10-16T20:47:21;5.03;;;4.63;;
12912;SDS011;6524;51.368;11.984;2022-10-16T20:52:21;5.55;;;5.05;;
12912;SDS011;6524;51.368;11.984;2022-10-16T20:57:22;5.90;;;5.20;;
12912;SDS011;6524;51.368;11.984;2022-10-16T21:02:22;5.55;;;5.05;;
12912;SDS011;6524;51.368;11.984;2022-10-16T21:07:22;5.53;;;4.88;;
12912;SDS011;6524;51.368;11.984;2022-10-16T21:12:23;4.80;;;4.40;;
12912;SDS011;6524;51.368;11.984;2022-10-16T21:17:24;6.05;;;4.90;;
12912;SDS011;6524;51.368;11.984;2022-10-16T21:22:28;5.15;;;4.60;;
12912;SDS011;6524;51.368;11.984;2022-10-16T21:27:29;6.68;;;4.97;;
12912;SDS011;6524;51.368;11.984;2022-10-16T21:32:29;5.10;;;4.60;;
12912;SDS011;6524;51.368;11.984;2022-10-16T21:37:30;6.88;;;5.97;;
12912;SDS011;6524;51.368;11.984;2022-10-16T21:42:30;5.60;;;5.10;;
12912;SDS011;6524;51.368;11.984;2022-10-16T21:47:31;6.38;;;5.78;;
12912;SDS011;6524;51.368;11.984;2022-10-16T21:52:32;5.70;;;5.20;;
12912;SDS011;6524;51.368;11.984;2022-10-16T21:57:33;6.40;;;5.80;;
12912;SDS011;6524;51.368;11.984;2022-10-16T22:02:35;6.50;;;5.95;;
12912;SDS011;6524;51.368;11.984;2022-10-16T22:07:35;6.07;;;5.57;;
12912;SDS011;6524;51.368;11.984;2022-10-16T22:12:35;5.97;;;5.47;;
12912;SDS011;6524;51.368;11.984;2022-10-16T22:17:35;5.95;;;5.43;;
12912;SDS011;6524;51.368;11.984;2022-10-16T22:22:36;4.97;;;4.57;;
12912;SDS011;6524;51.368;11.984;2022-10-16T22:27:37;4.90;;;4.43;;
12912;SDS011;6524;51.368;11.984;2022-10-16T22:32:37;4.72;;;4.32;;
12912;SDS011;6524;51.368;11.984;2022-10-16T22:37:37;5.00;;;4.50;;
12912;SDS011;6524;51.368;11.984;2022-10-16T22:42:39;5.13;;;4.65;;
12912;SDS011;6524;51.368;11.984;2022-10-16T22:47:39;4.80;;;4.40;;
12912;SDS011;6524;51.368;11.984;2022-10-16T22:52:40;5.37;;;4.67;;
12912;SDS011;6524;51.368;11.984;2022-10-16T22:57:40;4.73;;;4.33;;
12912;SDS011;6524;51.368;11.984;2022-10-16T23:02:41;4.95;;;4.43;;
12912;SDS011;6524;51.368;11.984;2022-10-16T23:07:41;4.45;;;4.10;;
12912;SDS011;6524;51.368;11.984;2022-10-16T23:12:43;4.63;;;4.18;;
12912;SDS011;6524;51.368;11.984;2022-10-16T23:17:45;3.30;;;3.10;;
12912;SDS011;6524;51.368;11.984;2022-10-16T23:22:45;3.92;;;3.63;;
12912;SDS011;6524;51.368;11.984;2022-10-16T23:27:45;4.60;;;3.83;;
12912;SDS011;6524;51.368;11.984;2022-10-16T23:32:46;4.82;;;4.15;;
12912;SDS011;6524;51.368;11.984;2022-10-16T23:37:49;3.80;;;3.50;;
12912;SDS011;6524;51.368;11.984;2022-10-16T23:42:50;4.20;;;3.80;;
12912;SDS011;6524;51.368;11.984;2022-10-16T23:47:50;4.30;;;3.58;;
12912;SDS011;6524;51.368;11.984;2022-10-16T23:52:51;4.00;;;3.58;;
12912;SDS011;6524;51.368;11.984;2022-10-16T23:57:51;3.70;;;3.40;;
